sensor_id;sensor_type;location;lat;lon;timestamp;temperature;humidity
44229;DHT22;29904;51.058;5.378;2024-03-22T00:00:44;11.60;99.90
44229;DHT22;29904;51.058;5.378;2024-03-22T00:03:10;11.60;99.90
44229;DHT22;29904;51.058;5.378;2024-03-22T00:05:36;11.60;99.90
44229;DHT22;29904;51.058;5.378;2024-03-22T00:08:02;11.60;99.90
44229;DHT22;29904;51.058;5.378;2024-03-22T00:10:27;11.60;99.90
44229;DHT22;29904;51.058;5.378;2024-03-22T00:12:55;11.60;99.90
44229;DHT22;29904;51.058;5.378;2024-03-22T00:15:20;11.60;99.90
44229;DHT22;29904;51.058;5.378;2024-03-22T00:17:46;11.70;99.90
44229;DHT22;29904;51.058;5.378;2024-03-22T00:20:11;11.60;99.90
44229;DHT22;29904;51.058;5.378;2024-03-22T00:22:37;11.60;99.90
44229;DHT22;29904;51.058;5.378;2024-03-22T00:25:03;11.70;99.90
44229;DHT22;29904;51.058;5.378;2024-03-22T00:27:29;11.70;99.90
44229;DHT22;29904;51.058;5.378;2024-03-22T00:29:56;11.70;99.90
44229;DHT22;29904;51.058;5.378;2024-03-22T00:32:22;11.70;99.90
44229;DHT22;29904;51.058;5.378;2024-03-22T00:34:47;11.70;99.90
44229;DHT22;29904;51.058;5.378;2024-03-22T00:37:13;11.70;99.90
44229;DHT22;29904;51.058;5.378;2024-03-22T00:39:39;11.70;99.90
44229;DHT22;29904;51.058;5.378;2024-03-22T00:42:04;11.70;99.90
44229;DHT22;29904;51.058;5.378;2024-03-22T00:44:31;11.70;99.90
44229;DHT22;29904;51.058;5.378;2024-03-22T00:46:57;11.70;99.90
44229;DHT22;29904;51.058;5.378;2024-03-22T00:49:23;11.80;99.90
44229;DHT22;29904;51.058;5.378;2024-03-22T00:51:48;11.80;99.90
44229;DHT22;29904;51.058;5.378;2024-03-22T00:54:14;11.80;99.90
44229;DHT22;29904;51.058;5.378;2024-03-22T00:56:39;11.80;99.90
44229;DHT22;29904;51.058;5.378;2024-03-22T00:59:06;11.80;99.90
44229;DHT22;29904;51.058;5.378;2024-03-22T01:01:32;11.90;99.90
44229;DHT22;29904;51.058;5.378;2024-03-22T01:03:58;11.90;99.90
44229;DHT22;29904;51.058;5.378;2024-03-22T01:06:23;11.90;99.90
44229;DHT22;29904;51.058;5.378;2024-03-22T01:08:50;11.90;99.90
44229;DHT22;29904;51.058;5.378;2024-03-22T01:11:17;11.90;99.90
44229;DHT22;29904;51.058;5.378;2024-03-22T01:13:42;11.90;99.90
44229;DHT22;29904;51.058;5.378;2024-03-22T01:16:08;11.90;99.90
44229;DHT22;29904;51.058;5.378;2024-03-22T01:18:38;11.90;99.90
44229;DHT22;29904;51.058;5.378;2024-03-22T01:21:03;11.90;99.90
44229;DHT22;29904;51.058;5.378;2024-03-22T01:23:30;11.90;99.90
44229;DHT22;29904;51.058;5.378;2024-03-22T01:25:56;11.90;99.90
44229;DHT22;29904;51.058;5.378;2024-03-22T01:28:21;11.90;99.90
44229;DHT22;29904;51.058;5.378;2024-03-22T01:30:47;11.90;99.90
44229;DHT22;29904;51.058;5.378;2024-03-22T01:33:13;11.90;99.90
44229;DHT22;29904;51.058;5.378;2024-03-22T01:35:38;11.90;99.90
44229;DHT22;29904;51.058;5.378;2024-03-22T01:38:04;11.90;99.90
44229;DHT22;29904;51.058;5.378;2024-03-22T01:40:29;11.90;99.90
44229;DHT22;29904;51.058;5.378;2024-03-22T01:42:57;11.90;99.90
44229;DHT22;29904;51.058;5.378;2024-03-22T01:45:23;11.90;99.90
44229;DHT22;29904;51.058;5.378;2024-03-22T01:47:51;11.90;99.90
44229;DHT22;29904;51.058;5.378;2024-03-22T01:50:22;11.90;99.90
44229;DHT22;29904;51.058;5.378;2024-03-22T01:52:48;11.90;99.90
44229;DHT22;29904;51.058;5.378;2024-03-22T01:55:14;11.90;99.90
44229;DHT22;29904;51.058;5.378;2024-03-22T01:57:39;11.90;99.90
44229;DHT22;29904;51.058;5.378;2024-03-22T02:00:05;12.00;99.90
44229;DHT22;29904;51.058;5.378;2024-03-22T02:02:31;12.00;99.90
44229;DHT22;29904;51.058;5.378;2024-03-22T02:04:57;12.00;99.90
44229;DHT22;29904;51.058;5.378;2024-03-22T02:07:22;12.00;99.90
44229;DHT22;29904;51.058;5.378;2024-03-22T02:09:48;12.00;99.90
44229;DHT22;29904;51.058;5.378;2024-03-22T02:12:16;12.00;99.90
44229;DHT22;29904;51.058;5.378;2024-03-22T02:14:42;12.00;99.90
44229;DHT22;29904;51.058;5.378;2024-03-22T02:17:07;12.00;99.90
44229;DHT22;29904;51.058;5.378;2024-03-22T02:19:33;12.00;99.90
44229;DHT22;29904;51.058;5.378;2024-03-22T02:21:58;12.00;99.90
44229;DHT22;29904;51.058;5.378;2024-03-22T02:24:24;12.00;99.90
44229;DHT22;29904;51.058;5.378;2024-03-22T02:26:51;12.00;99.90
44229;DHT22;29904;51.058;5.378;2024-03-22T02:29:17;12.00;99.90
44229;DHT22;29904;51.058;5.378;2024-03-22T02:31:43;12.00;99.90
44229;DHT22;29904;51.058;5.378;2024-03-22T02:34:11;12.00;99.90
44229;DHT22;29904;51.058;5.378;2024-03-22T02:36:36;11.90;99.90
44229;DHT22;29904;51.058;5.378;2024-03-22T02:39:02;11.90;99.90
44229;DHT22;29904;51.058;5.378;2024-03-22T02:41:27;11.80;99.90
44229;DHT22;29904;51.058;5.378;2024-03-22T02:43:53;11.80;99.90
44229;DHT22;29904;51.058;5.378;2024-03-22T02:46:18;11.70;99.90
44229;DHT22;29904;51.058;5.378;2024-03-22T02:48:44;11.60;99.90
44229;DHT22;29904;51.058;5.378;2024-03-22T02:51:09;11.50;99.90
44229;DHT22;29904;51.058;5.378;2024-03-22T02:53:35;11.50;99.90
44229;DHT22;29904;51.058;5.378;2024-03-22T02:56:01;11.40;99.90
44229;DHT22;29904;51.058;5.378;2024-03-22T02:58:26;11.40;99.90
44229;DHT22;29904;51.058;5.378;2024-03-22T03:00:52;11.30;99.90
44229;DHT22;29904;51.058;5.378;2024-03-22T03:03:17;11.30;99.90
44229;DHT22;29904;51.058;5.378;2024-03-22T03:05:43;11.30;99.90
44229;DHT22;29904;51.058;5.378;2024-03-22T03:08:09;11.30;99.90
44229;DHT22;29904;51.058;5.378;2024-03-22T03:10:35;11.30;99.90
44229;DHT22;29904;51.058;5.378;2024-03-22T03:13:00;11.30;99.90
44229;DHT22;29904;51.058;5.378;2024-03-22T03:15:26;11.30;99.90
44229;DHT22;29904;51.058;5.378;2024-03-22T03:17:52;11.40;99.90
44229;DHT22;29904;51.058;5.378;2024-03-22T03:20:17;11.40;99.90
44229;DHT22;29904;51.058;5.378;2024-03-22T03:22:43;11.40;99.90
44229;DHT22;29904;51.058;5.378;2024-03-22T03:25:10;11.40;99.90
44229;DHT22;29904;51.058;5.378;2024-03-22T03:27:36;11.40;99.90
44229;DHT22;29904;51.058;5.378;2024-03-22T03:30:01;11.40;99.90
44229;DHT22;29904;51.058;5.378;2024-03-22T03:32:27;11.40;99.90
44229;DHT22;29904;51.058;5.378;2024-03-22T03:34:53;11.40;99.90
44229;DHT22;29904;51.058;5.378;2024-03-22T03:37:18;11.40;99.90
44229;DHT22;29904;51.058;5.378;2024-03-22T03:39:46;11.40;99.90
44229;DHT22;29904;51.058;5.378;2024-03-22T03:42:11;11.40;99.90
44229;DHT22;29904;51.058;5.378;2024-03-22T03:44:37;11.40;99.90
44229;DHT22;29904;51.058;5.378;2024-03-22T03:47:04;11.50;99.90
44229;DHT22;29904;51.058;5.378;2024-03-22T03:49:30;11.40;99.90
44229;DHT22;29904;51.058;5.378;2024-03-22T03:51:55;11.50;99.90
44229;DHT22;29904;51.058;5.378;2024-03-22T03:54:21;11.50;99.90
44229;DHT22;29904;51.058;5.378;2024-03-22T03:56:47;11.50;99.90
44229;DHT22;29904;51.058;5.378;2024-03-22T03:59:12;11.40;99.90
44229;DHT22;29904;51.058;5.378;2024-03-22T04:01:38;11.40;99.90
44229;DHT22;29904;51.058;5.378;2024-03-22T04:04:03;11.50;99.90
44229;DHT22;29904;51.058;5.378;2024-03-22T04:06:29;11.50;99.90
44229;DHT22;29904;51.058;5.378;2024-03-22T04:08:55;11.50;99.90
44229;DHT22;29904;51.058;5.378;2024-03-22T04:11:20;11.50;99.90
44229;DHT22;29904;51.058;5.378;2024-03-22T04:13:46;11.50;99.90
44229;DHT22;29904;51.058;5.378;2024-03-22T04:16:13;11.50;99.90
44229;DHT22;29904;51.058;5.378;2024-03-22T04:18:39;11.50;99.90
44229;DHT22;29904;51.058;5.378;2024-03-22T04:21:04;11.50;99.90
44229;DHT22;29904;51.058;5.378;2024-03-22T04:23:32;11.40;99.90
44229;DHT22;29904;51.058;5.378;2024-03-22T04:26:01;11.50;99.90
44229;DHT22;29904;51.058;5.378;2024-03-22T04:28:29;11.50;99.90
44229;DHT22;29904;51.058;5.378;2024-03-22T04:30:56;11.50;99.90
44229;DHT22;29904;51.058;5.378;2024-03-22T04:33:21;11.50;99.90
44229;DHT22;29904;51.058;5.378;2024-03-22T04:35:47;11.50;99.90
44229;DHT22;29904;51.058;5.378;2024-03-22T04:38:12;11.50;99.90
44229;DHT22;29904;51.058;5.378;2024-03-22T04:40:38;11.60;99.90
44229;DHT22;29904;51.058;5.378;2024-03-22T04:43:04;11.50;99.90
44229;DHT22;29904;51.058;5.378;2024-03-22T04:45:32;11.50;99.90
44229;DHT22;29904;51.058;5.378;2024-03-22T04:47:57;11.50;99.90
44229;DHT22;29904;51.058;5.378;2024-03-22T04:50:23;11.50;99.90
44229;DHT22;29904;51.058;5.378;2024-03-22T04:52:50;11.50;99.90
44229;DHT22;29904;51.058;5.378;2024-03-22T04:55:16;11.50;99.90
44229;DHT22;29904;51.058;5.378;2024-03-22T04:57:41;11.50;99.90
44229;DHT22;29904;51.058;5.378;2024-03-22T05:00:07;11.50;99.90
44229;DHT22;29904;51.058;5.378;2024-03-22T05:02:34;11.50;99.90
44229;DHT22;29904;51.058;5.378;2024-03-22T05:05:01;11.50;99.90
44229;DHT22;29904;51.058;5.378;2024-03-22T05:07:27;11.50;99.90
44229;DHT22;29904;51.058;5.378;2024-03-22T05:09:52;11.50;99.90
44229;DHT22;29904;51.058;5.378;2024-03-22T05:12:18;11.50;99.90
44229;DHT22;29904;51.058;5.378;2024-03-22T05:14:43;11.50;99.90
44229;DHT22;29904;51.058;5.378;2024-03-22T05:17:09;11.50;99.90
44229;DHT22;29904;51.058;5.378;2024-03-22T05:19:36;11.50;99.90
44229;DHT22;29904;51.058;5.378;2024-03-22T05:22:02;11.60;99.90
44229;DHT22;29904;51.058;5.378;2024-03-22T05:24:28;11.60;99.90
44229;DHT22;29904;51.058;5.378;2024-03-22T05:26:53;11.60;99.90
44229;DHT22;29904;51.058;5.378;2024-03-22T05:29:19;11.60;99.90
44229;DHT22;29904;51.058;5.378;2024-03-22T05:31:48;11.60;99.90
44229;DHT22;29904;51.058;5.378;2024-03-22T05:34:16;11.50;99.90
44229;DHT22;29904;51.058;5.378;2024-03-22T05:36:42;11.50;99.90
44229;DHT22;29904;51.058;5.378;2024-03-22T05:39:08;11.60;99.90
44229;DHT22;29904;51.058;5.378;2024-03-22T05:41:36;11.50;99.90
44229;DHT22;29904;51.058;5.378;2024-03-22T05:44:02;11.50;99.90
44229;DHT22;29904;51.058;5.378;2024-03-22T05:46:28;11.60;99.90
44229;DHT22;29904;51.058;5.378;2024-03-22T05:48:54;11.60;99.90
44229;DHT22;29904;51.058;5.378;2024-03-22T05:51:19;11.60;99.90
44229;DHT22;29904;51.058;5.378;2024-03-22T05:53:45;11.60;99.90
44229;DHT22;29904;51.058;5.378;2024-03-22T05:56:12;11.60;99.90
44229;DHT22;29904;51.058;5.378;2024-03-22T05:58:38;11.60;99.90
44229;DHT22;29904;51.058;5.378;2024-03-22T06:01:04;11.60;99.90
44229;DHT22;29904;51.058;5.378;2024-03-22T06:03:29;11.50;99.90
44229;DHT22;29904;51.058;5.378;2024-03-22T06:05:55;11.60;99.90
44229;DHT22;29904;51.058;5.378;2024-03-22T06:08:25;11.50;99.90
44229;DHT22;29904;51.058;5.378;2024-03-22T06:10:52;11.60;99.90
44229;DHT22;29904;51.058;5.378;2024-03-22T06:13:17;11.60;99.90
44229;DHT22;29904;51.058;5.378;2024-03-22T06:15:43;11.70;99.90
44229;DHT22;29904;51.058;5.378;2024-03-22T06:18:11;11.70;99.90
44229;DHT22;29904;51.058;5.378;2024-03-22T06:20:36;11.70;99.90
44229;DHT22;29904;51.058;5.378;2024-03-22T06:23:02;11.80;99.90
44229;DHT22;29904;51.058;5.378;2024-03-22T06:25:27;11.80;99.90
44229;DHT22;29904;51.058;5.378;2024-03-22T06:27:53;11.90;99.90
44229;DHT22;29904;51.058;5.378;2024-03-22T06:30:18;11.90;99.90
44229;DHT22;29904;51.058;5.378;2024-03-22T06:32:44;11.90;99.90
44229;DHT22;29904;51.058;5.378;2024-03-22T06:35:09;11.90;99.90
44229;DHT22;29904;51.058;5.378;2024-03-22T06:37:37;11.90;99.90
44229;DHT22;29904;51.058;5.378;2024-03-22T06:40:03;12.00;99.90
44229;DHT22;29904;51.058;5.378;2024-03-22T06:42:30;12.00;99.90
44229;DHT22;29904;51.058;5.378;2024-03-22T06:44:55;12.10;99.90
44229;DHT22;29904;51.058;5.378;2024-03-22T06:47:23;12.10;99.90
44229;DHT22;29904;51.058;5.378;2024-03-22T06:49:48;12.20;99.90
44229;DHT22;29904;51.058;5.378;2024-03-22T06:52:14;12.20;99.90
44229;DHT22;29904;51.058;5.378;2024-03-22T06:54:43;12.20;99.90
44229;DHT22;29904;51.058;5.378;2024-03-22T06:57:09;12.20;99.90
44229;DHT22;29904;51.058;5.378;2024-03-22T06:59:34;12.20;99.90
44229;DHT22;29904;51.058;5.378;2024-03-22T07:02:01;12.20;99.90
44229;DHT22;29904;51.058;5.378;2024-03-22T07:04:27;12.30;99.90
44229;DHT22;29904;51.058;5.378;2024-03-22T07:06:53;12.30;99.90
44229;DHT22;29904;51.058;5.378;2024-03-22T07:09:20;12.30;99.90
44229;DHT22;29904;51.058;5.378;2024-03-22T07:11:46;12.40;99.90
44229;DHT22;29904;51.058;5.378;2024-03-22T07:14:11;12.40;99.90
44229;DHT22;29904;51.058;5.378;2024-03-22T07:16:37;12.50;99.90
44229;DHT22;29904;51.058;5.378;2024-03-22T07:19:03;12.50;99.90
44229;DHT22;29904;51.058;5.378;2024-03-22T07:21:29;12.50;99.90
44229;DHT22;29904;51.058;5.378;2024-03-22T07:23:55;12.50;99.90
44229;DHT22;29904;51.058;5.378;2024-03-22T07:26:22;12.50;99.90
44229;DHT22;29904;51.058;5.378;2024-03-22T07:28:48;12.50;99.90
44229;DHT22;29904;51.058;5.378;2024-03-22T07:31:13;12.50;99.90
44229;DHT22;29904;51.058;5.378;2024-03-22T07:33:39;12.50;99.90
44229;DHT22;29904;51.058;5.378;2024-03-22T07:36:05;12.50;99.90
44229;DHT22;29904;51.058;5.378;2024-03-22T07:38:32;12.50;99.90
44229;DHT22;29904;51.058;5.378;2024-03-22T07:41:00;12.50;99.90
44229;DHT22;29904;51.058;5.378;2024-03-22T07:43:25;12.50;99.90
44229;DHT22;29904;51.058;5.378;2024-03-22T07:45:51;12.60;99.90
44229;DHT22;29904;51.058;5.378;2024-03-22T07:48:19;12.70;99.90
44229;DHT22;29904;51.058;5.378;2024-03-22T07:50:46;12.70;99.90
44229;DHT22;29904;51.058;5.378;2024-03-22T07:53:12;12.80;99.90
44229;DHT22;29904;51.058;5.378;2024-03-22T07:55:39;12.90;99.90
44229;DHT22;29904;51.058;5.378;2024-03-22T07:58:07;13.00;99.90
44229;DHT22;29904;51.058;5.378;2024-03-22T08:00:32;13.20;99.90
44229;DHT22;29904;51.058;5.378;2024-03-22T08:02:58;13.20;99.90
44229;DHT22;29904;51.058;5.378;2024-03-22T08:05:23;13.30;99.90
44229;DHT22;29904;51.058;5.378;2024-03-22T08:07:49;13.20;99.90
44229;DHT22;29904;51.058;5.378;2024-03-22T08:10:14;13.20;99.90
44229;DHT22;29904;51.058;5.378;2024-03-22T08:12:41;13.20;99.90
44229;DHT22;29904;51.058;5.378;2024-03-22T08:15:07;13.20;99.90
44229;DHT22;29904;51.058;5.378;2024-03-22T08:17:32;13.20;99.90
44229;DHT22;29904;51.058;5.378;2024-03-22T08:19:58;13.40;99.90
44229;DHT22;29904;51.058;5.378;2024-03-22T08:22:24;13.50;99.90
44229;DHT22;29904;51.058;5.378;2024-03-22T08:24:49;13.80;99.90
44229;DHT22;29904;51.058;5.378;2024-03-22T08:27:15;14.10;99.90
44229;DHT22;29904;51.058;5.378;2024-03-22T08:29:43;14.30;99.90
44229;DHT22;29904;51.058;5.378;2024-03-22T08:32:08;14.60;99.90
44229;DHT22;29904;51.058;5.378;2024-03-22T08:34:34;14.50;99.90
44229;DHT22;29904;51.058;5.378;2024-03-22T08:37:01;14.20;99.90
44229;DHT22;29904;51.058;5.378;2024-03-22T08:39:29;14.10;99.90
44229;DHT22;29904;51.058;5.378;2024-03-22T08:41:55;13.90;99.90
44229;DHT22;29904;51.058;5.378;2024-03-22T08:44:20;13.80;99.90
44229;DHT22;29904;51.058;5.378;2024-03-22T08:46:46;13.80;99.90
44229;DHT22;29904;51.058;5.378;2024-03-22T08:49:12;13.80;99.90
44229;DHT22;29904;51.058;5.378;2024-03-22T08:51:40;13.70;99.90
44229;DHT22;29904;51.058;5.378;2024-03-22T08:54:07;13.60;99.90
44229;DHT22;29904;51.058;5.378;2024-03-22T08:56:32;13.70;99.90
44229;DHT22;29904;51.058;5.378;2024-03-22T08:58:58;13.70;99.90
44229;DHT22;29904;51.058;5.378;2024-03-22T09:01:24;13.80;99.90
44229;DHT22;29904;51.058;5.378;2024-03-22T09:03:50;13.70;99.90
44229;DHT22;29904;51.058;5.378;2024-03-22T09:06:16;13.60;99.90
44229;DHT22;29904;51.058;5.378;2024-03-22T09:08:42;13.50;99.90
44229;DHT22;29904;51.058;5.378;2024-03-22T09:11:07;13.50;99.90
44229;DHT22;29904;51.058;5.378;2024-03-22T09:13:33;13.60;99.90
44229;DHT22;29904;51.058;5.378;2024-03-22T09:16:00;13.70;99.90
44229;DHT22;29904;51.058;5.378;2024-03-22T09:18:28;13.80;99.90
44229;DHT22;29904;51.058;5.378;2024-03-22T09:20:54;13.70;99.90
44229;DHT22;29904;51.058;5.378;2024-03-22T09:23:19;13.70;99.90
44229;DHT22;29904;51.058;5.378;2024-03-22T09:25:47;13.70;99.90
44229;DHT22;29904;51.058;5.378;2024-03-22T09:28:13;13.60;99.90
44229;DHT22;29904;51.058;5.378;2024-03-22T09:30:39;13.70;99.90
44229;DHT22;29904;51.058;5.378;2024-03-22T09:33:05;13.80;99.90
44229;DHT22;29904;51.058;5.378;2024-03-22T09:35:30;13.80;99.90
44229;DHT22;29904;51.058;5.378;2024-03-22T09:37:57;13.80;99.90
44229;DHT22;29904;51.058;5.378;2024-03-22T09:40:24;13.90;99.90
44229;DHT22;29904;51.058;5.378;2024-03-22T09:42:50;13.80;99.90
44229;DHT22;29904;51.058;5.378;2024-03-22T09:45:18;13.70;99.90
44229;DHT22;29904;51.058;5.378;2024-03-22T09:47:45;13.70;99.90
44229;DHT22;29904;51.058;5.378;2024-03-22T09:50:11;13.80;99.90
44229;DHT22;29904;51.058;5.378;2024-03-22T09:52:38;13.80;99.90
44229;DHT22;29904;51.058;5.378;2024-03-22T09:55:04;13.90;99.90
44229;DHT22;29904;51.058;5.378;2024-03-22T09:57:30;14.10;99.90
44229;DHT22;29904;51.058;5.378;2024-03-22T09:59:56;14.10;99.90
44229;DHT22;29904;51.058;5.378;2024-03-22T10:02:22;14.20;99.90
44229;DHT22;29904;51.058;5.378;2024-03-22T10:04:50;14.20;99.90
44229;DHT22;29904;51.058;5.378;2024-03-22T10:07:16;14.20;99.90
44229;DHT22;29904;51.058;5.378;2024-03-22T10:09:41;14.20;99.90
44229;DHT22;29904;51.058;5.378;2024-03-22T10:12:09;14.20;99.90
44229;DHT22;29904;51.058;5.378;2024-03-22T10:14:36;14.20;99.90
44229;DHT22;29904;51.058;5.378;2024-03-22T10:17:02;14.20;99.90
44229;DHT22;29904;51.058;5.378;2024-03-22T10:19:28;14.20;99.90
44229;DHT22;29904;51.058;5.378;2024-03-22T10:22:02;14.20;99.90
44229;DHT22;29904;51.058;5.378;2024-03-22T10:24:28;14.20;99.90
44229;DHT22;29904;51.058;5.378;2024-03-22T10:26:54;14.30;99.90
44229;DHT22;29904;51.058;5.378;2024-03-22T10:29:20;14.50;99.90
44229;DHT22;29904;51.058;5.378;2024-03-22T10:31:45;14.60;99.90
44229;DHT22;29904;51.058;5.378;2024-03-22T10:34:13;14.90;99.90
44229;DHT22;29904;51.058;5.378;2024-03-22T10:36:39;15.10;99.90
44229;DHT22;29904;51.058;5.378;2024-03-22T10:39:05;15.30;99.90
44229;DHT22;29904;51.058;5.378;2024-03-22T10:41:31;15.30;99.90
44229;DHT22;29904;51.058;5.378;2024-03-22T10:43:58;15.30;99.90
44229;DHT22;29904;51.058;5.378;2024-03-22T10:46:29;15.20;99.90
44229;DHT22;29904;51.058;5.378;2024-03-22T10:48:55;15.20;99.90
44229;DHT22;29904;51.058;5.378;2024-03-22T10:51:21;15.30;99.90
44229;DHT22;29904;51.058;5.378;2024-03-22T10:53:48;15.40;99.90
44229;DHT22;29904;51.058;5.378;2024-03-22T10:56:15;15.40;99.90
44229;DHT22;29904;51.058;5.378;2024-03-22T10:58:41;15.30;99.90
44229;DHT22;29904;51.058;5.378;2024-03-22T11:01:22;15.30;99.90
44229;DHT22;29904;51.058;5.378;2024-03-22T11:03:47;15.30;99.90
44229;DHT22;29904;51.058;5.378;2024-03-22T11:06:13;15.40;99.90
44229;DHT22;29904;51.058;5.378;2024-03-22T11:08:43;15.30;99.90
44229;DHT22;29904;51.058;5.378;2024-03-22T11:11:09;15.50;99.90
44229;DHT22;29904;51.058;5.378;2024-03-22T11:13:37;15.50;99.90
44229;DHT22;29904;51.058;5.378;2024-03-22T11:16:04;15.60;99.90
44229;DHT22;29904;51.058;5.378;2024-03-22T11:18:33;15.60;99.90
44229;DHT22;29904;51.058;5.378;2024-03-22T11:20:59;15.50;99.90
44229;DHT22;29904;51.058;5.378;2024-03-22T11:23:24;15.50;99.90
44229;DHT22;29904;51.058;5.378;2024-03-22T11:25:52;15.30;99.90
44229;DHT22;29904;51.058;5.378;2024-03-22T11:28:17;15.20;99.90
44229;DHT22;29904;51.058;5.378;2024-03-22T11:30:44;15.10;99.90
44229;DHT22;29904;51.058;5.378;2024-03-22T11:33:10;15.10;99.90
44229;DHT22;29904;51.058;5.378;2024-03-22T11:35:35;15.10;99.90
44229;DHT22;29904;51.058;5.378;2024-03-22T11:38:01;15.00;99.90
44229;DHT22;29904;51.058;5.378;2024-03-22T11:40:30;14.90;99.90
44229;DHT22;29904;51.058;5.378;2024-03-22T11:42:56;14.60;99.90
44229;DHT22;29904;51.058;5.378;2024-03-22T11:45:22;14.50;99.90
44229;DHT22;29904;51.058;5.378;2024-03-22T11:47:50;14.40;99.90
44229;DHT22;29904;51.058;5.378;2024-03-22T11:50:16;14.40;99.90
44229;DHT22;29904;51.058;5.378;2024-03-22T11:52:42;14.30;99.90
44229;DHT22;29904;51.058;5.378;2024-03-22T11:55:08;14.40;99.90
44229;DHT22;29904;51.058;5.378;2024-03-22T11:57:33;14.50;99.90
44229;DHT22;29904;51.058;5.378;2024-03-22T11:59:59;14.70;99.90
44229;DHT22;29904;51.058;5.378;2024-03-22T12:02:25;14.70;99.90
44229;DHT22;29904;51.058;5.378;2024-03-22T12:04:53;14.60;99.90
44229;DHT22;29904;51.058;5.378;2024-03-22T12:07:19;14.60;99.90
44229;DHT22;29904;51.058;5.378;2024-03-22T12:09:44;14.40;99.90
44229;DHT22;29904;51.058;5.378;2024-03-22T12:12:11;14.40;99.90
44229;DHT22;29904;51.058;5.378;2024-03-22T12:14:37;14.50;99.90
44229;DHT22;29904;51.058;5.378;2024-03-22T12:17:02;14.70;99.90
44229;DHT22;29904;51.058;5.378;2024-03-22T12:19:28;14.70;99.90
44229;DHT22;29904;51.058;5.378;2024-03-22T12:21:56;14.70;99.90
44229;DHT22;29904;51.058;5.378;2024-03-22T12:24:22;14.50;99.90
44229;DHT22;29904;51.058;5.378;2024-03-22T12:26:48;14.50;99.90
44229;DHT22;29904;51.058;5.378;2024-03-22T12:29:16;14.50;99.90
44229;DHT22;29904;51.058;5.378;2024-03-22T12:31:42;14.30;99.90
44229;DHT22;29904;51.058;5.378;2024-03-22T12:34:07;14.20;99.90
44229;DHT22;29904;51.058;5.378;2024-03-22T12:36:35;14.20;99.90
44229;DHT22;29904;51.058;5.378;2024-03-22T12:39:00;14.10;99.90
44229;DHT22;29904;51.058;5.378;2024-03-22T12:41:27;14.00;99.90
44229;DHT22;29904;51.058;5.378;2024-03-22T12:43:54;13.90;99.90
44229;DHT22;29904;51.058;5.378;2024-03-22T12:46:20;13.90;99.90
44229;DHT22;29904;51.058;5.378;2024-03-22T12:48:45;13.80;99.90
44229;DHT22;29904;51.058;5.378;2024-03-22T12:51:11;13.90;99.90
44229;DHT22;29904;51.058;5.378;2024-03-22T12:53:38;13.90;99.90
44229;DHT22;29904;51.058;5.378;2024-03-22T12:56:04;13.90;99.90
44229;DHT22;29904;51.058;5.378;2024-03-22T12:58:30;13.80;99.90
44229;DHT22;29904;51.058;5.378;2024-03-22T13:00:57;13.70;99.90
44229;DHT22;29904;51.058;5.378;2024-03-22T13:03:23;13.70;99.90
44229;DHT22;29904;51.058;5.378;2024-03-22T13:05:49;13.70;99.90
44229;DHT22;29904;51.058;5.378;2024-03-22T13:08:16;13.70;99.90
44229;DHT22;29904;51.058;5.378;2024-03-22T13:10:42;13.70;99.90
44229;DHT22;29904;51.058;5.378;2024-03-22T13:13:09;13.70;99.90
44229;DHT22;29904;51.058;5.378;2024-03-22T13:15:39;13.70;99.90
44229;DHT22;29904;51.058;5.378;2024-03-22T13:18:05;13.60;99.90
44229;DHT22;29904;51.058;5.378;2024-03-22T13:20:31;13.50;99.90
44229;DHT22;29904;51.058;5.378;2024-03-22T13:22:58;13.40;99.90
44229;DHT22;29904;51.058;5.378;2024-03-22T13:25:23;13.30;99.90
44229;DHT22;29904;51.058;5.378;2024-03-22T13:27:49;13.30;99.90
44229;DHT22;29904;51.058;5.378;2024-03-22T13:30:15;13.30;99.90
44229;DHT22;29904;51.058;5.378;2024-03-22T13:32:40;13.30;99.90
44229;DHT22;29904;51.058;5.378;2024-03-22T13:35:06;13.30;99.90
44229;DHT22;29904;51.058;5.378;2024-03-22T13:37:34;13.30;99.90
44229;DHT22;29904;51.058;5.378;2024-03-22T13:40:00;13.30;99.90
44229;DHT22;29904;51.058;5.378;2024-03-22T13:42:26;13.10;99.90
44229;DHT22;29904;51.058;5.378;2024-03-22T13:44:51;13.00;99.90
44229;DHT22;29904;51.058;5.378;2024-03-22T13:47:17;13.00;99.90
44229;DHT22;29904;51.058;5.378;2024-03-22T13:49:43;13.00;99.90
44229;DHT22;29904;51.058;5.378;2024-03-22T13:52:10;13.00;99.90
44229;DHT22;29904;51.058;5.378;2024-03-22T13:54:37;13.00;99.90
44229;DHT22;29904;51.058;5.378;2024-03-22T13:57:03;12.90;99.90
44229;DHT22;29904;51.058;5.378;2024-03-22T13:59:28;12.90;99.90
44229;DHT22;29904;51.058;5.378;2024-03-22T14:01:54;12.90;99.90
44229;DHT22;29904;51.058;5.378;2024-03-22T14:04:25;12.80;99.90
44229;DHT22;29904;51.058;5.378;2024-03-22T14:06:51;12.80;99.90
44229;DHT22;29904;51.058;5.378;2024-03-22T14:09:19;12.80;99.90
44229;DHT22;29904;51.058;5.378;2024-03-22T14:11:45;12.80;99.90
44229;DHT22;29904;51.058;5.378;2024-03-22T14:14:14;12.80;99.90
44229;DHT22;29904;51.058;5.378;2024-03-22T14:16:40;12.70;99.90
44229;DHT22;29904;51.058;5.378;2024-03-22T14:19:06;12.70;99.90
44229;DHT22;29904;51.058;5.378;2024-03-22T14:21:32;12.70;99.90
44229;DHT22;29904;51.058;5.378;2024-03-22T14:23:58;12.60;99.90
44229;DHT22;29904;51.058;5.378;2024-03-22T14:26:23;12.50;99.90
44229;DHT22;29904;51.058;5.378;2024-03-22T14:28:49;12.40;99.90
44229;DHT22;29904;51.058;5.378;2024-03-22T14:31:16;12.30;99.90
44229;DHT22;29904;51.058;5.378;2024-03-22T14:33:41;12.20;99.90
44229;DHT22;29904;51.058;5.378;2024-03-22T14:36:08;12.20;99.90
44229;DHT22;29904;51.058;5.378;2024-03-22T14:38:34;12.10;99.90
44229;DHT22;29904;51.058;5.378;2024-03-22T14:41:00;12.10;99.90
44229;DHT22;29904;51.058;5.378;2024-03-22T14:43:26;12.20;99.90
44229;DHT22;29904;51.058;5.378;2024-03-22T14:45:54;12.20;99.90
44229;DHT22;29904;51.058;5.378;2024-03-22T14:48:19;12.20;99.90
44229;DHT22;29904;51.058;5.378;2024-03-22T14:50:46;12.20;99.90
44229;DHT22;29904;51.058;5.378;2024-03-22T14:53:17;12.10;99.90
44229;DHT22;29904;51.058;5.378;2024-03-22T14:55:58;12.00;99.90
44229;DHT22;29904;51.058;5.378;2024-03-22T14:58:27;12.00;99.90
44229;DHT22;29904;51.058;5.378;2024-03-22T15:00:56;12.10;99.90
44229;DHT22;29904;51.058;5.378;2024-03-22T15:03:23;12.10;99.90
44229;DHT22;29904;51.058;5.378;2024-03-22T15:05:52;12.10;99.90
44229;DHT22;29904;51.058;5.378;2024-03-22T15:08:18;12.10;99.90
44229;DHT22;29904;51.058;5.378;2024-03-22T15:10:44;12.10;99.90
44229;DHT22;29904;51.058;5.378;2024-03-22T15:13:10;12.10;99.90
44229;DHT22;29904;51.058;5.378;2024-03-22T15:15:36;12.10;99.90
44229;DHT22;29904;51.058;5.378;2024-03-22T15:18:02;12.10;99.90
44229;DHT22;29904;51.058;5.378;2024-03-22T15:20:31;12.10;99.90
44229;DHT22;29904;51.058;5.378;2024-03-22T15:22:56;12.10;99.90